Time;durP1;ratioP1;P1;durP2;ratioP2;P2;SDS_P1;SDS_P2;PMS_P1;PMS_P2;Temp;Humidity;BMP_temperature;BMP_pressure;BME280_temperature;BME280_humidity;BME280_pressure;Samples;Min_cycle;Max_cycle;Signal;HPM_P1;HPM_P2
2022/10/11 00:00:31;;;;;;;7.97;2.77;;;9.70;99.90;;;;;;5030586;28;20281;-37
2022/10/11 00:02:58;;;;;;;5.93;3.10;;;9.60;99.90;;;;;;5029309;28;20425;-36
2022/10/11 00:05:24;;;;;;;5.13;2.80;;;9.70;99.90;;;;;;5030671;28;20437;-37
2022/10/11 00:07:50;;;;;;;9.50;3.43;;;9.80;99.90;;;;;;5030581;28;20796;-36
2022/10/11 00:10:17;;;;;;;9.37;2.90;;;9.70;99.90;;;;;;5029259;28;20433;-38
2022/10/11 00:12:43;;;;;;;7.90;2.57;;;9.60;99.90;;;;;;5029937;28;20417;-37
2022/10/11 00:15:16;;;;;;;4.73;3.13;;;9.60;99.90;;;;;;5030730;28;20449;-37
2022/10/11 00:17:42;;;;;;;5.80;3.23;;;9.60;99.90;;;;;;5030591;28;20509;-36
2022/10/11 00:20:08;;;;;;;9.37;3.20;;;9.60;99.90;;;;;;5031061;28;21083;-36
2022/10/11 00:22:35;;;;;;;7.70;3.07;;;9.60;99.90;;;;;;5029807;28;20966;-36
2022/10/11 00:25:00;;;;;;;8.13;3.23;;;9.60;99.90;;;;;;5030114;28;20475;-36
2022/10/11 00:27:27;;;;;;;5.23;2.50;;;9.60;99.90;;;;;;5030383;28;21004;-36
2022/10/11 00:29:52;;;;;;;14.50;3.50;;;9.50;99.90;;;;;;5030083;28;20193;-37
2022/10/11 00:32:19;;;;;;;4.90;3.10;;;9.70;99.90;;;;;;5030213;28;20429;-36
2022/10/11 00:34:44;;;;;;;5.67;2.37;;;9.50;99.90;;;;;;5028151;28;20249;-36
2022/10/11 00:37:10;;;;;;;5.20;2.70;;;9.50;99.90;;;;;;5030346;28;20810;-37
2022/10/11 00:39:36;;;;;;;6.83;2.77;;;9.50;99.90;;;;;;5030150;28;20512;-36
2022/10/11 00:42:02;;;;;;;6.23;3.03;;;9.50;99.90;;;;;;5044980;28;20733;-36
2022/10/11 00:44:30;;;;;;;6.30;2.73;;;9.40;99.90;;;;;;5029224;28;20668;-36
2022/10/11 00:47:03;;;;;;;5.00;2.93;;;8.90;99.90;;;;;;5029793;28;20204;-36
2022/10/11 00:49:45;;;;;;;5.87;3.30;;;9.40;99.90;;;;;;5029898;28;20433;-36
2022/10/11 00:52:19;;;;;;;5.77;3.40;;;9.40;99.90;;;;;;5030073;28;20439;-36
2022/10/11 00:54:47;;;;;;;7.13;4.07;;;9.30;99.90;;;;;;5028094;28;20433;-37
2022/10/11 00:57:18;;;;;;;6.10;3.43;;;9.30;99.90;;;;;;5029769;28;20433;-37
2022/10/11 00:59:48;;;;;;;8.93;3.90;;;9.30;99.90;;;;;;5029984;28;20512;-36
2022/10/11 01:02:16;;;;;;;9.37;3.80;;;9.30;99.90;;;;;;5029292;28;20460;-37
2022/10/11 01:04:42;;;;;;;8.70;3.70;;;9.30;99.90;;;;;;5029239;28;20448;-36
2022/10/11 01:07:09;;;;;;;11.43;4.50;;;9.20;99.90;;;;;;5029719;28;20487;-37
2022/10/11 01:09:35;;;;;;;9.43;4.00;;;9.20;99.90;;;;;;5029758;28;20508;-36
2022/10/11 01:12:05;;;;;;;6.23;3.67;;;9.20;99.90;;;;;;5029603;28;20479;-36
2022/10/11 01:14:43;;;;;;;7.30;3.47;;;9.20;99.90;;;;;;5028992;28;20932;-37
2022/10/11 01:17:24;;;;;;;7.40;3.50;;;9.10;99.90;;;;;;5029640;28;20532;-36
2022/10/11 01:20:08;;;;;;;6.20;3.90;;;9.10;99.90;;;;;;5030048;28;20416;-37
2022/10/11 01:23:31;;;;;;;8.67;3.77;;;9.20;99.90;;;;;;5029337;28;20425;-36
2022/10/11 01:25:59;;;;;;;6.60;3.67;;;9.20;99.90;;;;;;5026996;28;20429;-36
2022/10/11 01:28:56;;;;;;;5.67;3.33;;;9.10;99.90;;;;;;5026802;28;20445;-36
2022/10/11 01:31:27;;;;;;;5.27;3.60;;;9.10;99.90;;;;;;5017060;28;20483;-36
2022/10/11 01:34:07;;;;;;;8.20;4.20;;;9.00;99.90;;;;;;5028882;28;20421;-36
2022/10/11 01:36:40;;;;;;;8.23;3.77;;;8.60;99.90;;;;;;5029609;28;20552;-36
2022/10/11 01:39:15;;;;;;;7.10;3.93;;;9.00;99.90;;;;;;5029536;28;20467;-36
2022/10/11 01:41:51;;;;;;;10.20;4.53;;;9.30;99.90;;;;;;5029322;28;20547;-36
2022/10/11 01:44:18;;;;;;;8.90;4.60;;;9.10;99.90;;;;;;5028999;28;20429;-37
2022/10/11 01:46:44;;;;;;;10.70;4.63;;;9.20;99.90;;;;;;5032757;28;20432;-36
2022/10/11 01:49:10;;;;;;;7.50;4.87;;;9.30;99.90;;;;;;5032036;28;20916;-36
2022/10/11 01:51:39;;;;;;;8.53;5.33;;;9.30;99.90;;;;;;5033389;28;20201;-36
2022/10/11 01:54:29;;;;;;;11.50;5.10;;;9.30;99.90;;;;;;5032215;28;20888;-36
2022/10/11 01:57:42;;;;;;;8.47;4.30;;;9.30;99.90;;;;;;5032900;28;20463;-36
2022/10/11 02:00:10;;;;;;;7.80;5.47;;;9.10;99.90;;;;;;5032969;28;20417;-36
2022/10/11 02:02:48;;;;;;;8.23;4.47;;;9.20;99.90;;;;;;5032455;28;20812;-36
2022/10/11 02:05:20;;;;;;;8.00;4.70;;;9.20;99.90;;;;;;5032883;28;20433;-36
2022/10/11 02:08:14;;;;;;;8.50;4.60;;;9.10;99.90;;;;;;5033077;28;20421;-36
2022/10/11 02:11:01;;;;;;;9.13;4.60;;;9.10;99.90;;;;;;5032770;28;20820;-36
2022/10/11 02:13:30;;;;;;;10.57;5.10;;;8.90;99.90;;;;;;5032324;28;20436;-36
2022/10/11 02:15:59;;;;;;;7.40;4.10;;;8.70;99.90;;;;;;5032746;28;20417;-36
2022/10/11 02:18:31;;;;;;;9.10;5.27;;;9.00;99.90;;;;;;5032769;28;20511;-36
2022/10/11 02:21:00;;;;;;;9.13;5.70;;;9.20;99.90;;;;;;5033543;28;20923;-36
2022/10/11 02:23:32;;;;;;;7.50;4.97;;;9.10;99.90;;;;;;5031740;28;20437;-36
2022/10/11 02:25:58;;;;;;;9.70;5.00;;;9.10;99.90;;;;;;5032766;28;20897;-36
2022/10/11 02:28:30;;;;;;;9.03;5.20;;;8.70;99.90;;;;;;5032564;28;20425;-36
2022/10/11 02:30:59;;;;;;;12.47;5.90;;;9.10;99.90;;;;;;5032651;28;20425;-36
2022/10/11 02:33:36;;;;;;;13.43;6.07;;;9.10;99.90;;;;;;5031741;28;20425;-36
2022/10/11 02:36:12;;;;;;;11.50;6.00;;;9.10;99.90;;;;;;5032278;28;20432;-36
2022/10/11 02:38:43;;;;;;;10.37;5.97;;;9.10;99.90;;;;;;5032373;28;20431;-36
2022/10/11 02:41:37;;;;;;;10.30;6.60;;;9.10;99.90;;;;;;5032363;28;20492;-37
2022/10/11 02:44:11;;;;;;;11.30;6.00;;;9.20;99.90;;;;;;5031453;28;20417;-36
2022/10/11 02:46:38;;;;;;;10.10;5.30;;;8.90;99.90;;;;;;5032495;28;20417;-36
2022/10/11 02:49:06;;;;;;;10.90;5.83;;;9.00;99.90;;;;;;5031886;28;20425;-36
2022/10/11 02:51:32;;;;;;;11.60;6.53;;;8.90;99.90;;;;;;5041062;28;20435;-36
2022/10/11 02:53:58;;;;;;;9.53;6.20;;;8.70;99.90;;;;;;5045379;28;20458;-36
2022/10/11 02:56:24;;;;;;;9.03;6.37;;;8.90;99.90;;;;;;5020332;28;21134;-36
2022/10/11 02:58:49;;;;;;;10.33;5.70;;;8.80;99.90;;;;;;5031676;28;20669;-36
2022/10/11 03:01:15;;;;;;;9.37;5.70;;;8.50;99.90;;;;;;5031946;28;20267;-36
2022/10/11 03:03:41;;;;;;;12.60;6.20;;;8.80;99.90;;;;;;5031135;28;20292;-36
2022/10/11 03:06:07;;;;;;;12.47;5.77;;;8.60;99.90;;;;;;5031761;28;20260;-37
2022/10/11 03:08:33;;;;;;;7.63;5.80;;;8.70;99.90;;;;;;5031785;28;20672;-37
2022/10/11 03:10:59;;;;;;;11.40;5.57;;;8.70;99.90;;;;;;5031845;28;20421;-36
2022/10/11 03:13:24;;;;;;;8.23;5.73;;;8.80;99.90;;;;;;5030793;28;20213;-37
2022/10/11 03:15:52;;;;;;;7.43;5.50;;;8.70;99.90;;;;;;5031728;28;20421;-36
2022/10/11 03:18:18;;;;;;;7.70;5.53;;;8.60;99.90;;;;;;5031737;28;20198;-36
2022/10/11 03:20:44;;;;;;;9.87;6.40;;;8.60;99.90;;;;;;5032218;28;20484;-36
2022/10/11 03:23:10;;;;;;;14.20;6.10;;;8.50;99.90;;;;;;5030939;28;20248;-36
2022/10/11 03:25:36;;;;;;;11.67;6.00;;;8.50;99.90;;;;;;5031548;28;20191;-36
2022/10/11 03:28:01;;;;;;;10.10;5.93;;;8.50;99.90;;;;;;5031188;28;20425;-36
2022/10/11 03:30:27;;;;;;;8.50;5.60;;;8.40;99.90;;;;;;5031370;28;20194;-36
2022/10/11 03:32:53;;;;;;;11.10;6.07;;;8.40;99.90;;;;;;5029416;28;20195;-36
2022/10/11 03:35:18;;;;;;;10.67;6.43;;;8.50;99.90;;;;;;5031366;28;20201;-36
2022/10/11 03:37:44;;;;;;;14.00;6.30;;;8.60;99.90;;;;;;5031268;28;20197;-36
2022/10/11 03:40:10;;;;;;;7.77;6.60;;;8.50;99.90;;;;;;5031142;28;20205;-37
2022/10/11 03:42:36;;;;;;;10.43;6.03;;;8.50;99.90;;;;;;5030351;28;20811;-36
2022/10/11 03:45:06;;;;;;;10.20;6.33;;;8.50;99.90;;;;;;5030052;28;20429;-36
2022/10/11 03:47:33;;;;;;;10.17;6.27;;;8.50;99.90;;;;;;5029902;28;20429;-36
2022/10/11 03:49:58;;;;;;;17.03;7.43;;;8.70;99.90;;;;;;5030804;28;20425;-37
2022/10/11 03:52:24;;;;;;;13.40;6.60;;;8.50;99.90;;;;;;5029455;28;20474;-36
2022/10/11 03:54:50;;;;;;;13.07;6.93;;;8.20;99.90;;;;;;5029630;28;20541;-36
2022/10/11 03:57:16;;;;;;;12.23;7.30;;;8.40;99.90;;;;;;5030483;28;20198;-37
2022/10/11 03:59:41;;;;;;;12.00;6.50;;;8.40;99.90;;;;;;5030974;28;20197;-37
2022/10/11 04:02:07;;;;;;;10.87;6.87;;;8.40;99.90;;;;;;5030621;28;20210;-37
2022/10/11 04:04:32;;;;;;;9.63;7.10;;;8.50;99.90;;;;;;5030173;28;20700;-37
2022/10/11 04:06:58;;;;;;;9.90;6.30;;;8.40;99.90;;;;;;5030604;28;20257;-36
2022/10/11 04:09:24;;;;;;;12.83;7.63;;;8.30;99.90;;;;;;5030107;28;20194;-36
2022/10/11 04:11:49;;;;;;;9.63;6.50;;;8.20;99.90;;;;;;5028798;28;20182;-37
2022/10/11 04:14:16;;;;;;;13.10;6.53;;;8.30;99.90;;;;;;5029971;28;20371;-37
2022/10/11 04:16:42;;;;;;;10.37;7.13;;;8.20;99.90;;;;;;5030734;28;20320;-37
2022/10/11 04:19:07;;;;;;;8.50;6.80;;;7.80;99.90;;;;;;5030492;28;20508;-36
2022/10/11 04:21:33;;;;;;;12.80;7.40;;;8.10;99.90;;;;;;5042634;28;20515;-37
2022/10/11 04:23:59;;;;;;;8.93;6.70;;;8.20;99.90;;;;;;5029680;28;20183;-36
2022/10/11 04:26:24;;;;;;;14.37;7.97;;;8.30;99.90;;;;;;5030217;28;20179;-36
2022/10/11 04:28:50;;;;;;;10.17;6.73;;;8.20;99.90;;;;;;5030324;28;20187;-36
2022/10/11 04:31:15;;;;;;;10.67;6.30;;;8.20;99.90;;;;;;5030434;28;20247;-36
2022/10/11 04:33:41;;;;;;;12.60;7.67;;;8.10;99.90;;;;;;5029506;28;20186;-37
2022/10/11 04:36:07;;;;;;;11.90;7.40;;;8.30;99.90;;;;;;5030246;28;20389;-36
2022/10/11 04:38:32;;;;;;;9.27;7.37;;;8.10;99.90;;;;;;5030138;28;20210;-36
2022/10/11 04:41:09;;;;;;;9.97;7.00;;;8.10;99.90;;;;;;5028216;28;20226;-36
2022/10/11 04:43:35;;;;;;;15.67;7.87;;;8.00;99.90;;;;;;5022675;28;20210;-36
2022/10/11 04:46:01;;;;;;;13.43;8.20;;;8.20;99.90;;;;;;5030054;28;20444;-36
2022/10/11 04:48:27;;;;;;;14.83;8.13;;;7.90;99.90;;;;;;5034365;28;20426;-37
2022/10/11 04:50:52;;;;;;;11.07;7.57;;;7.90;99.90;;;;;;5033716;28;20255;-37
2022/10/11 04:53:18;;;;;;;12.90;7.23;;;8.10;99.90;;;;;;5028227;28;20243;-36
2022/10/11 04:55:55;;;;;;;10.80;6.90;;;7.80;99.90;;;;;;5028789;28;20727;-36
2022/10/11 04:58:20;;;;;;;13.60;7.30;;;7.90;99.90;;;;;;5030005;28;20657;-36
2022/10/11 05:00:46;;;;;;;10.57;7.63;;;8.10;99.90;;;;;;5027527;28;20472;-37
2022/10/11 05:03:12;;;;;;;11.00;7.07;;;7.90;99.90;;;;;;5029715;28;20201;-36
2022/10/11 05:05:37;;;;;;;10.70;7.10;;;8.00;99.90;;;;;;5030010;28;20553;-37
2022/10/11 05:08:03;;;;;;;11.67;6.67;;;7.80;99.90;;;;;;5029701;28;20187;-37
2022/10/11 05:10:29;;;;;;;9.70;6.67;;;7.90;99.90;;;;;;5028521;28;20190;-36
2022/10/11 05:12:54;;;;;;;10.33;7.10;;;8.10;99.90;;;;;;5028001;28;20186;-36
2022/10/11 05:15:20;;;;;;;13.23;7.20;;;8.10;99.90;;;;;;5029792;28;20657;-37
2022/10/11 05:17:45;;;;;;;12.97;6.80;;;8.00;99.90;;;;;;5029852;28;20190;-37
2022/10/11 05:20:11;;;;;;;12.90;8.40;;;7.80;99.90;;;;;;5033771;28;20244;-36
2022/10/11 05:22:37;;;;;;;9.00;6.90;;;7.70;99.90;;;;;;5033096;28;20201;-36
2022/10/11 05:25:03;;;;;;;10.77;6.60;;;7.50;99.90;;;;;;5033445;28;20194;-37
2022/10/11 05:27:28;;;;;;;11.50;7.40;;;7.60;99.90;;;;;;5033371;28;20544;-36
2022/10/11 05:29:54;;;;;;;11.27;6.93;;;7.10;99.90;;;;;;5033438;28;20938;-36
2022/10/11 05:32:20;;;;;;;13.67;7.43;;;7.50;99.90;;;;;;5033423;28;20186;-36
2022/10/11 05:34:45;;;;;;;9.73;6.40;;;7.50;99.90;;;;;;5033246;28;20214;-36
2022/10/11 05:37:11;;;;;;;10.40;7.10;;;7.60;99.90;;;;;;5033202;28;20294;-37
2022/10/11 05:39:36;;;;;;;9.87;6.70;;;7.70;99.90;;;;;;5034672;28;20281;-36
2022/10/11 05:42:02;;;;;;;9.93;7.30;;;7.50;99.90;;;;;;5033396;28;20256;-36
2022/10/11 05:44:28;;;;;;;8.80;5.57;;;7.50;99.90;;;;;;5037117;28;20645;-36
2022/10/11 05:46:54;;;;;;;10.20;6.90;;;7.50;99.90;;;;;;5040742;28;21012;-36
2022/10/11 05:49:19;;;;;;;11.47;8.50;;;7.50;99.90;;;;;;5033081;28;20198;-36
2022/10/11 05:51:45;;;;;;;8.60;6.87;;;7.50;99.90;;;;;;5033119;28;20202;-36
2022/10/11 05:54:11;;;;;;;11.80;6.97;;;7.40;99.90;;;;;;5026010;28;20237;-36
2022/10/11 05:56:37;;;;;;;11.47;6.77;;;7.40;99.90;;;;;;5032544;28;20425;-36
2022/10/11 05:59:04;;;;;;;8.17;6.40;;;7.50;99.90;;;;;;5036063;28;20213;-36
2022/10/11 06:01:29;;;;;;;11.43;7.47;;;7.60;99.90;;;;;;5032419;28;20210;-36
2022/10/11 06:03:55;;;;;;;10.97;6.67;;;7.40;99.90;;;;;;5034261;28;20426;-36
2022/10/11 06:06:21;;;;;;;10.20;7.07;;;7.30;99.90;;;;;;5032457;28;20797;-36
2022/10/11 06:08:47;;;;;;;9.67;7.27;;;7.30;99.90;;;;;;5033658;28;20201;-36
2022/10/11 06:11:16;;;;;;;10.20;6.80;;;7.40;99.90;;;;;;5032617;28;20429;-36
2022/10/11 06:13:43;;;;;;;13.47;8.03;;;7.30;99.90;;;;;;5032037;28;20512;-36
2022/10/11 06:16:09;;;;;;;15.90;7.70;;;7.40;99.90;;;;;;5028266;28;20455;-36
2022/10/11 06:18:35;;;;;;;10.73;7.33;;;7.40;99.90;;;;;;5031632;28;20432;-36
2022/10/11 06:21:01;;;;;;;8.97;8.07;;;7.60;99.90;;;;;;5031784;28;20944;-36
2022/10/11 06:23:26;;;;;;;9.90;6.90;;;7.50;99.90;;;;;;5031811;28;20190;-36
2022/10/11 06:26:01;;;;;;;9.87;7.13;;;7.50;99.90;;;;;;5032422;28;20783;-36
2022/10/11 06:28:28;;;;;;;13.70;7.40;;;7.50;99.90;;;;;;5032543;28;20188;-36
2022/10/11 06:30:55;;;;;;;16.83;8.97;;;7.60;99.90;;;;;;5031802;28;20429;-36
2022/10/11 06:33:21;;;;;;;14.97;8.50;;;7.60;99.90;;;;;;5031661;28;20503;-36
2022/10/11 06:35:46;;;;;;;11.40;8.63;;;7.90;99.90;;;;;;5032072;28;20438;-36
2022/10/11 06:38:12;;;;;;;19.17;8.67;;;8.00;99.90;;;;;;5033646;28;20792;-36
2022/10/11 06:40:38;;;;;;;11.83;8.20;;;7.80;99.90;;;;;;5032131;28;20211;-36
2022/10/11 06:43:03;;;;;;;11.67;8.00;;;7.90;99.90;;;;;;5033819;28;20245;-36
2022/10/11 06:45:29;;;;;;;15.23;8.33;;;7.70;99.90;;;;;;5031958;28;20216;-36
2022/10/11 06:47:55;;;;;;;10.83;7.13;;;8.00;99.90;;;;;;5034596;28;20186;-36
2022/10/11 06:50:20;;;;;;;11.60;7.50;;;8.00;99.90;;;;;;5032444;28;20190;-36
2022/10/11 06:52:46;;;;;;;14.20;7.83;;;8.10;99.90;;;;;;5044732;28;20703;-36
2022/10/11 06:55:12;;;;;;;13.40;8.40;;;8.30;99.90;;;;;;5029354;28;20178;-36
2022/10/11 06:57:38;;;;;;;14.07;8.90;;;8.30;99.90;;;;;;5031532;28;20472;-36
2022/10/11 07:00:05;;;;;;;12.47;7.50;;;8.30;99.90;;;;;;5032240;28;20186;-36
2022/10/11 07:02:30;;;;;;;18.03;9.80;;;8.20;99.90;;;;;;5030791;28;20225;-36
2022/10/11 07:04:56;;;;;;;14.87;9.27;;;8.50;99.90;;;;;;5033018;28;20441;-36
2022/10/11 07:07:22;;;;;;;19.23;11.03;;;8.70;99.90;;;;;;5040817;28;20190;-36
2022/10/11 07:09:48;;;;;;;13.80;9.63;;;8.90;99.90;;;;;;5033563;28;20568;-36
2022/10/11 07:12:13;;;;;;;16.20;9.67;;;9.10;99.90;;;;;;5031014;28;20333;-36
2022/10/11 07:14:39;;;;;;;14.73;9.33;;;9.20;99.90;;;;;;5031219;28;20332;-36
2022/10/11 07:17:04;;;;;;;14.87;9.47;;;9.30;99.90;;;;;;5031462;28;20617;-36
2022/10/11 07:19:30;;;;;;;14.00;9.37;;;9.40;99.90;;;;;;5036143;28;20281;-36
2022/10/11 07:21:56;;;;;;;15.10;9.97;;;9.60;99.90;;;;;;5031122;28;20274;-37
2022/10/11 07:24:21;;;;;;;12.40;8.20;;;9.90;99.90;;;;;;5030878;28;20275;-36
2022/10/11 07:26:47;;;;;;;16.20;8.90;;;10.00;99.90;;;;;;5031547;28;20195;-37
2022/10/11 07:29:13;;;;;;;14.03;9.20;;;10.20;99.90;;;;;;5031462;28;20194;-36
2022/10/11 07:31:40;;;;;;;16.70;10.27;;;10.50;99.90;;;;;;5031267;28;20206;-36
2022/10/11 07:34:07;;;;;;;14.40;8.87;;;10.80;99.90;;;;;;5030744;28;20551;-36
2022/10/11 07:36:32;;;;;;;15.27;10.10;;;11.10;99.90;;;;;;5030030;28;20429;-37
2022/10/11 07:38:58;;;;;;;12.53;8.90;;;11.40;99.90;;;;;;5031204;28;20428;-36
2022/10/11 07:41:24;;;;;;;15.90;9.30;;;11.40;99.90;;;;;;5031135;28;20552;-36
2022/10/11 07:43:50;;;;;;;15.63;8.93;;;11.50;99.90;;;;;;5028429;28;20187;-37
2022/10/11 07:46:17;;;;;;;19.90;9.83;;;11.60;99.90;;;;;;5029515;28;20186;-37
2022/10/11 07:48:43;;;;;;;15.00;9.60;;;11.70;99.90;;;;;;5030446;28;20429;-38
2022/10/11 07:51:15;;;;;;;16.33;9.73;;;11.90;99.90;;;;;;5031078;28;20511;-36
2022/10/11 07:53:49;;;;;;;15.47;8.83;;;12.00;99.90;;;;;;5030402;28;20524;-37
2022/10/11 07:56:17;;;;;;;15.27;7.30;;;12.30;99.90;;;;;;5030112;28;20437;-37
2022/10/11 07:58:43;;;;;;;18.80;7.53;;;12.60;99.90;;;;;;5030571;28;20432;-37
2022/10/11 08:01:10;;;;;;;17.83;7.67;;;12.90;99.90;;;;;;5030788;28;20473;-37
2022/10/11 08:03:36;;;;;;;15.37;6.90;;;13.20;99.90;;;;;;5030261;28;20190;-37
2022/10/11 08:06:08;;;;;;;15.80;7.20;;;13.30;99.90;;;;;;5030703;28;20455;-36
2022/10/11 08:08:34;;;;;;;14.43;7.17;;;13.50;99.90;;;;;;5030611;28;20439;-36
2022/10/11 08:11:00;;;;;;;16.47;7.53;;;13.70;99.90;;;;;;5030739;28;20436;-37
2022/10/11 08:13:25;;;;;;;12.73;6.77;;;13.70;99.90;;;;;;5029567;28;20425;-37
2022/10/11 08:15:51;;;;;;;13.70;7.17;;;13.80;99.90;;;;;;5030751;28;20202;-37
2022/10/11 08:18:17;;;;;;;17.30;7.93;;;14.00;99.90;;;;;;5030564;28;20560;-36
2022/10/11 08:20:43;;;;;;;18.73;7.30;;;14.10;99.90;;;;;;5031075;28;21047;-37
2022/10/11 08:23:09;;;;;;;15.30;7.37;;;14.00;99.90;;;;;;5029776;28;20197;-37
2022/10/11 08:25:39;;;;;;;14.60;7.67;;;14.00;99.90;;;;;;5030492;28;20490;-37
2022/10/11 08:28:05;;;;;;;14.00;7.30;;;14.20;99.90;;;;;;5030062;28;20183;-38
2022/10/11 08:30:31;;;;;;;11.70;6.27;;;14.30;99.90;;;;;;5030489;28;21133;-37
2022/10/11 08:32:57;;;;;;;12.20;6.43;;;14.40;99.90;;;;;;5029655;28;21171;-37
2022/10/11 08:35:23;;;;;;;15.83;7.00;;;14.60;99.90;;;;;;5030423;28;20422;-37
2022/10/11 08:37:49;;;;;;;21.13;7.20;;;14.70;99.90;;;;;;5045387;28;20217;-37
2022/10/11 08:40:17;;;;;;;12.30;6.33;;;14.70;99.90;;;;;;5030282;28;20197;-37
2022/10/11 08:43:10;;;;;;;10.23;5.83;;;14.80;99.90;;;;;;5028967;28;20213;-37
2022/10/11 08:45:53;;;;;;;12.30;6.10;;;14.90;99.90;;;;;;5029638;28;20448;-37
2022/10/11 08:48:40;;;;;;;13.70;7.13;;;14.60;99.90;;;;;;5030122;28;20429;-37
2022/10/11 08:51:20;;;;;;;14.80;6.30;;;14.70;99.90;;;;;;5030192;28;20432;-37
2022/10/11 08:54:11;;;;;;;11.70;6.00;;;14.60;99.90;;;;;;5027647;28;20979;-37
2022/10/11 08:56:38;;;;;;;15.70;6.00;;;14.60;99.90;;;;;;5017879;28;21088;-37
2022/10/11 08:59:10;;;;;;;12.77;6.43;;;14.70;99.90;;;;;;5027936;28;20417;-37
2022/10/11 09:01:49;;;;;;;16.33;5.70;;;14.60;99.90;;;;;;5029831;28;20460;-37
2022/10/11 09:04:16;;;;;;;9.47;5.00;;;14.70;99.90;;;;;;5017149;28;20582;-39
2022/10/11 09:06:51;;;;;;;22.20;7.07;;;14.80;99.90;;;;;;5029958;28;20512;-37
2022/10/11 09:09:38;;;;;;;14.90;4.30;;;15.10;99.90;;;;;;5029873;28;20416;-37
2022/10/11 09:12:10;;;;;;;9.30;3.50;;;15.30;99.90;;;;;;5029959;28;20855;-38
2022/10/11 09:14:54;;;;;;;10.07;3.27;;;15.50;99.90;;;;;;5029286;28;20881;-37
2022/10/11 09:17:57;;;;;;;9.57;4.30;;;15.60;99.90;;;;;;5029864;28;21007;-37
2022/10/11 09:20:39;;;;;;;6.97;3.10;;;15.60;99.90;;;;;;5022642;28;20861;-36
2022/10/11 09:23:14;;;;;;;8.93;4.10;;;15.80;99.90;;;;;;5040458;28;20603;-37
2022/10/11 09:25:48;;;;;;;11.67;4.70;;;16.00;99.90;;;;;;5048283;28;20990;-37
2022/10/11 09:28:29;;;;;;;8.27;4.67;;;16.20;99.90;;;;;;5049514;28;20428;-37
2022/10/11 09:30:56;;;;;;;14.20;4.13;;;16.20;99.90;;;;;;5049486;28;20431;-37
2022/10/11 09:33:37;;;;;;;14.30;4.47;;;16.30;99.90;;;;;;5048954;28;20585;-37
2022/10/11 09:36:32;;;;;;;7.73;2.87;;;16.30;99.90;;;;;;5049556;28;20919;-37
2022/10/11 09:39:27;;;;;;;8.40;2.67;;;16.10;99.90;;;;;;5049334;28;20413;-37
2022/10/11 09:42:04;;;;;;;7.20;2.80;;;16.10;99.90;;;;;;5047971;28;20513;-37
2022/10/11 09:44:38;;;;;;;6.33;2.70;;;16.20;99.90;;;;;;5048709;28;20424;-37
2022/10/11 09:47:05;;;;;;;11.57;3.30;;;16.40;99.90;;;;;;5049101;28;20415;-37
2022/10/11 09:49:41;;;;;;;9.43;2.77;;;16.50;99.90;;;;;;5049399;28;20862;-36
2022/10/11 09:52:14;;;;;;;19.33;3.37;;;16.40;99.90;;;;;;5049286;28;20416;-37
2022/10/11 09:54:46;;;;;;;4.53;1.50;;;16.40;99.90;;;;;;5029999;28;20810;-36
2022/10/11 09:57:25;;;;;;;9.20;2.70;;;16.40;99.90;;;;;;5025819;28;20528;-37
2022/10/11 10:00:26;;;;;;;15.30;2.67;;;16.40;99.90;;;;;;5029495;28;20424;-37
2022/10/11 10:02:54;;;;;;;6.57;1.87;;;16.40;99.90;;;;;;5028162;28;20425;-37
2022/10/11 10:05:23;;;;;;;6.80;2.40;;;16.30;99.90;;;;;;5029317;28;20483;-37
2022/10/11 10:08:09;;;;;;;9.47;2.50;;;16.20;99.90;;;;;;5032455;28;20429;-36
2022/10/11 10:10:42;;;;;;;6.93;2.20;;;15.90;99.90;;;;;;5033057;28;20979;-37
2022/10/11 10:13:34;;;;;;;7.80;2.60;;;15.60;99.90;;;;;;5032178;28;20412;-36
2022/10/11 10:16:01;;;;;;;4.73;1.70;;;15.20;99.90;;;;;;5031875;28;20440;-37
2022/10/11 10:18:35;;;;;;;3.13;1.80;;;15.10;99.90;;;;;;5032436;28;20471;-37
2022/10/11 10:21:02;;;;;;;7.53;1.80;;;14.90;99.90;;;;;;5033291;28;20471;-36
2022/10/11 10:23:33;;;;;;;5.63;2.00;;;15.00;99.90;;;;;;5031842;28;21158;-37
2022/10/11 10:26:19;;;;;;;4.90;2.30;;;15.20;99.90;;;;;;5032607;28;20429;-37
2022/10/11 10:29:15;;;;;;;6.80;2.53;;;15.50;99.90;;;;;;5032136;28;20445;-36
2022/10/11 10:31:47;;;;;;;4.53;1.60;;;15.80;99.90;;;;;;5032657;28;20425;-37
2022/10/11 10:34:25;;;;;;;6.23;1.93;;;15.90;99.90;;;;;;5031788;28;20490;-37
2022/10/11 10:37:18;;;;;;;7.30;2.03;;;16.00;99.90;;;;;;5032525;28;20413;-39
2022/10/11 10:40:07;;;;;;;11.23;2.10;;;16.20;99.90;;;;;;5025119;28;20436;-37
2022/10/11 10:42:32;;;;;;;7.93;2.03;;;16.20;99.90;;;;;;5032032;28;20495;-37
2022/10/11 10:44:58;;;;;;;7.00;2.30;;;16.00;99.90;;;;;;5031936;28;20940;-37
2022/10/11 10:47:37;;;;;;;3.53;1.60;;;15.90;99.90;;;;;;5032134;28;20196;-36
2022/10/11 10:50:28;;;;;;;6.80;1.70;;;15.90;99.90;;;;;;5032504;28;20424;-37
2022/10/11 10:53:02;;;;;;;12.30;2.20;;;15.80;99.90;;;;;;5031242;28;20429;-37
2022/10/11 10:55:39;;;;;;;7.30;1.80;;;15.70;99.90;;;;;;5030671;28;20421;-37
2022/10/11 10:58:09;;;;;;;6.70;1.90;;;15.60;99.90;;;;;;5031998;28;20428;-36
2022/10/11 11:01:08;;;;;;;5.20;1.80;;;15.60;99.90;;;;;;5031898;28;20852;-36
2022/10/11 11:03:36;;;;;;;6.90;2.43;;;15.70;99.90;;;;;;5026575;28;20510;-36
2022/10/11 11:06:06;;;;;;;3.23;1.70;;;15.60;99.90;;;;;;5032024;28;20795;-37
2022/10/11 11:08:35;;;;;;;7.80;2.33;;;15.60;99.90;;;;;;5031780;28;20444;-36
2022/10/11 11:11:27;;;;;;;5.17;1.40;;;15.60;99.90;;;;;;5031896;28;20826;-37
2022/10/11 11:14:20;;;;;;;3.50;1.70;;;15.60;99.90;;;;;;5031190;28;20413;-36
2022/10/11 11:16:49;;;;;;;5.37;2.53;;;15.50;99.90;;;;;;5031272;28;20425;-37
2022/10/11 11:19:17;;;;;;;7.40;3.27;;;15.40;99.90;;;;;;5031650;28;20664;-36
2022/10/11 11:22:03;;;;;;;4.90;1.90;;;15.40;99.90;;;;;;5030525;28;20835;-37
2022/10/11 11:24:34;;;;;;;6.50;2.13;;;15.30;99.70;;;;;;5031004;28;20425;-36
2022/10/11 11:27:16;;;;;;;3.30;1.50;;;15.10;99.90;;;;;;5031457;28;20518;-37
2022/10/11 11:29:55;;;;;;;3.83;1.27;;;15.10;99.90;;;;;;5031805;28;20421;-37
2022/10/11 11:32:35;;;;;;;7.80;1.50;;;15.20;99.60;;;;;;5031252;28;20428;-37
2022/10/11 11:35:15;;;;;;;3.20;1.70;;;15.40;99.10;;;;;;5031328;28;20465;-37
2022/10/11 11:37:44;;;;;;;6.53;2.37;;;15.60;99.00;;;;;;5030983;28;20428;-37
2022/10/11 11:40:20;;;;;;;8.03;1.33;;;15.80;99.30;;;;;;5031452;28;20517;-37
2022/10/11 11:42:52;;;;;;;7.63;1.67;;;16.00;97.70;;;;;;5030451;28;20465;-36
2022/10/11 11:45:32;;;;;;;3.27;1.53;;;16.30;97.40;;;;;;5031253;28;20440;-36
2022/10/11 11:48:17;;;;;;;3.80;1.50;;;16.30;97.60;;;;;;5029678;28;20460;-36
2022/10/11 11:50:51;;;;;;;7.60;2.30;;;16.20;97.50;;;;;;5030219;28;20417;-37
2022/10/11 11:53:30;;;;;;;6.10;2.80;;;16.10;98.50;;;;;;5030372;28;20453;-37
2022/10/11 11:56:01;;;;;;;6.03;1.57;;;16.10;98.40;;;;;;5029636;28;20428;-37
2022/10/11 11:58:53;;;;;;;7.17;1.93;;;16.10;99.60;;;;;;5030605;28;20428;-37
2022/10/11 12:01:32;;;;;;;8.17;2.27;;;16.30;99.90;;;;;;5029617;28;20530;-37
2022/10/11 12:04:08;;;;;;;6.37;2.17;;;16.60;99.70;;;;;;5030041;28;20518;-36
2022/10/11 12:06:35;;;;;;;4.57;2.10;;;16.80;98.90;;;;;;5029465;28;20436;-37
2022/10/11 12:09:04;;;;;;;4.77;1.70;;;17.00;98.00;;;;;;5030775;28;20633;-37
2022/10/11 12:11:35;;;;;;;6.40;2.23;;;17.00;97.20;;;;;;5030822;28;20667;-38
2022/10/11 12:14:33;;;;;;;5.77;2.33;;;17.10;96.80;;;;;;5030050;28;20421;-37
2022/10/11 12:17:08;;;;;;;3.57;2.07;;;17.10;96.60;;;;;;5030279;28;20421;-38
2022/10/11 12:19:36;;;;;;;6.20;2.10;;;17.10;96.60;;;;;;5029690;28;20420;-37
2022/10/11 12:22:36;;;;;;;3.50;1.70;;;17.00;97.20;;;;;;5030556;28;20477;-37
2022/10/11 12:25:08;;;;;;;5.00;1.90;;;16.80;97.30;;;;;;5030094;28;20429;-37
2022/10/11 12:27:45;;;;;;;8.93;2.40;;;16.70;97.00;;;;;;5045571;28;20773;-36
2022/10/11 12:30:45;;;;;;;4.60;1.97;;;16.60;97.10;;;;;;5029797;28;20916;-37
2022/10/11 12:33:15;;;;;;;4.73;1.60;;;16.30;97.50;;;;;;5029607;28;20459;-37
2022/10/11 12:35:53;;;;;;;3.77;1.80;;;16.10;98.00;;;;;;5030285;28;20428;-37
2022/10/11 12:38:18;;;;;;;5.97;1.90;;;16.10;98.00;;;;;;5028997;28;20428;-37
2022/10/11 12:40:46;;;;;;;6.83;2.07;;;16.00;98.30;;;;;;5030071;28;20448;-37
2022/10/11 12:43:14;;;;;;;6.30;2.20;;;16.00;97.80;;;;;;5028243;28;20201;-37
2022/10/11 12:45:51;;;;;;;5.23;1.60;;;15.90;97.80;;;;;;5030087;28;20982;-37
2022/10/11 12:48:37;;;;;;;7.13;2.20;;;15.80;98.30;;;;;;5030042;28;20574;-37
2022/10/11 12:51:15;;;;;;;4.03;2.07;;;15.70;98.00;;;;;;5030048;28;20440;-36
2022/10/11 12:54:15;;;;;;;9.13;2.40;;;15.60;98.20;;;;;;5029410;28;20439;-36
2022/10/11 12:57:08;;;;;;;7.23;2.17;;;15.60;98.70;;;;;;5029528;28;20424;-37
2022/10/11 12:59:38;;;;;;;4.27;1.80;;;15.70;98.50;;;;;;5030105;28;20429;-37
2022/10/11 13:02:27;;;;;;;9.23;2.23;;;15.70;97.70;;;;;;5029787;28;20472;-37
2022/10/11 13:05:14;;;;;;;5.00;2.23;;;15.80;97.80;;;;;;5029345;28;20542;-37
2022/10/11 13:07:40;;;;;;;5.80;2.03;;;15.80;98.00;;;;;;5029957;28;20790;-37
2022/10/11 13:10:06;;;;;;;4.90;1.80;;;15.80;97.90;;;;;;5029970;28;20947;-37